sensor_id;sensor_type;location;lat;lon;timestamp;pressure;altitude;pressure_sealevel;temperature;humidity
73651;BME280;61944;52.538;6.108;2023-10-13T00:01:18;101010.78;;;15.87;100.00
73651;BME280;61944;52.538;6.108;2023-10-13T00:03:43;100995.91;;;15.79;100.00
73651;BME280;61944;52.538;6.108;2023-10-13T00:06:09;101001.50;;;15.90;100.00
73651;BME280;61944;52.538;6.108;2023-10-13T00:08:35;100993.50;;;15.78;100.00
73651;BME280;61944;52.538;6.108;2023-10-13T00:11:02;100989.75;;;15.95;100.00
73651;BME280;61944;52.538;6.108;2023-10-13T00:13:28;100982.53;;;15.87;100.00
73651;BME280;61944;52.538;6.108;2023-10-13T00:15:55;100979.00;;;15.72;100.00
73651;BME280;61944;52.538;6.108;2023-10-13T00:18:29;100988.69;;;15.75;100.00
73651;BME280;61944;52.538;6.108;2023-10-13T00:21:08;100987.84;;;15.74;100.00
73651;BME280;61944;52.538;6.108;2023-10-13T00:23:42;100982.16;;;15.85;100.00
73651;BME280;61944;52.538;6.108;2023-10-13T00:26:21;100986.16;;;15.91;100.00
73651;BME280;61944;52.538;6.108;2023-10-13T00:28:52;100991.84;;;15.80;100.00
73651;BME280;61944;52.538;6.108;2023-10-13T00:31:25;100992.19;;;15.97;100.00
73651;BME280;61944;52.538;6.108;2023-10-13T00:34:04;100983.31;;;15.91;100.00
73651;BME280;61944;52.538;6.108;2023-10-13T00:36:50;100983.38;;;15.84;100.00
73651;BME280;61944;52.538;6.108;2023-10-13T00:39:34;100978.47;;;15.95;100.00
73651;BME280;61944;52.538;6.108;2023-10-13T00:42:04;100971.63;;;15.96;100.00
73651;BME280;61944;52.538;6.108;2023-10-13T00:44:33;100985.28;;;16.01;100.00
73651;BME280;61944;52.538;6.108;2023-10-13T00:47:09;100982.94;;;15.89;100.00
73651;BME280;61944;52.538;6.108;2023-10-13T00:49:41;100980.50;;;15.95;100.00
73651;BME280;61944;52.538;6.108;2023-10-13T00:52:09;100976.09;;;15.90;100.00
73651;BME280;61944;52.538;6.108;2023-10-13T00:54:36;100976.47;;;15.92;100.00
73651;BME280;61944;52.538;6.108;2023-10-13T00:57:03;100971.66;;;15.89;100.00
73651;BME280;61944;52.538;6.108;2023-10-13T01:00:00;100969.22;;;15.91;100.00
73651;BME280;61944;52.538;6.108;2023-10-13T01:02:44;100968.41;;;15.94;100.00
73651;BME280;61944;52.538;6.108;2023-10-13T01:05:10;100962.72;;;15.98;100.00
73651;BME280;61944;52.538;6.108;2023-10-13T01:07:36;100960.41;;;15.82;100.00
73651;BME280;61944;52.538;6.108;2023-10-13T01:10:09;100964.34;;;15.95;100.00
73651;BME280;61944;52.538;6.108;2023-10-13T01:12:38;100962.75;;;15.94;100.00
73651;BME280;61944;52.538;6.108;2023-10-13T01:15:03;100961.09;;;16.00;100.00
73651;BME280;61944;52.538;6.108;2023-10-13T01:17:33;100949.81;;;16.00;100.00
73651;BME280;61944;52.538;6.108;2023-10-13T01:19:59;100949.84;;;15.93;100.00
73651;BME280;61944;52.538;6.108;2023-10-13T01:22:25;100951.47;;;15.94;100.00
73651;BME280;61944;52.538;6.108;2023-10-13T01:24:52;100945.78;;;15.98;100.00
73651;BME280;61944;52.538;6.108;2023-10-13T01:27:29;100944.19;;;15.93;100.00
73651;BME280;61944;52.538;6.108;2023-10-13T01:29:54;100940.19;;;15.94;100.00
73651;BME280;61944;52.538;6.108;2023-10-13T01:32:34;100934.56;;;15.87;100.00
73651;BME280;61944;52.538;6.108;2023-10-13T01:35:06;100930.53;;;15.88;100.00
73651;BME280;61944;52.538;6.108;2023-10-13T01:37:32;100929.75;;;15.88;100.00
73651;BME280;61944;52.538;6.108;2023-10-13T01:39:57;100931.28;;;15.96;100.00
73651;BME280;61944;52.538;6.108;2023-10-13T01:42:22;100927.63;;;15.99;100.00
73651;BME280;61944;52.538;6.108;2023-10-13T01:44:49;100930.47;;;15.99;100.00
73651;BME280;61944;52.538;6.108;2023-10-13T01:47:15;100914.31;;;15.99;100.00
73651;BME280;61944;52.538;6.108;2023-10-13T01:49:42;100910.75;;;15.92;100.00
73651;BME280;61944;52.538;6.108;2023-10-13T01:52:11;100905.53;;;15.87;100.00
73651;BME280;61944;52.538;6.108;2023-10-13T01:54:38;100902.63;;;15.97;100.00
73651;BME280;61944;52.538;6.108;2023-10-13T01:57:07;100897.38;;;15.99;100.00
73651;BME280;61944;52.538;6.108;2023-10-13T01:59:33;100903.78;;;16.03;100.00
73651;BME280;61944;52.538;6.108;2023-10-13T02:01:58;100892.19;;;15.94;100.00
73651;BME280;61944;52.538;6.108;2023-10-13T02:04:27;100899.81;;;15.97;100.00
73651;BME280;61944;52.538;6.108;2023-10-13T02:06:52;100892.53;;;16.00;100.00
73651;BME280;61944;52.538;6.108;2023-10-13T02:09:17;100883.66;;;15.98;100.00
73651;BME280;61944;52.538;6.108;2023-10-13T02:11:51;100884.50;;;15.98;100.00
73651;BME280;61944;52.538;6.108;2023-10-13T02:14:22;100882.09;;;15.93;100.00
73651;BME280;61944;52.538;6.108;2023-10-13T02:16:53;100877.28;;;15.90;100.00
73651;BME280;61944;52.538;6.108;2023-10-13T02:19:37;100871.59;;;15.94;100.00
73651;BME280;61944;52.538;6.108;2023-10-13T02:22:05;100864.38;;;15.93;100.00
73651;BME280;61944;52.538;6.108;2023-10-13T02:24:34;100869.16;;;15.99;100.00
73651;BME280;61944;52.538;6.108;2023-10-13T02:26:59;100859.50;;;15.93;100.00
73651;BME280;61944;52.538;6.108;2023-10-13T02:29:38;100865.91;;;16.04;100.00
73651;BME280;61944;52.538;6.108;2023-10-13T02:32:05;100859.09;;;15.98;100.00
73651;BME280;61944;52.538;6.108;2023-10-13T02:34:37;100853.84;;;15.97;100.00
73651;BME280;61944;52.538;6.108;2023-10-13T02:37:09;100852.66;;;15.94;100.00
73651;BME280;61944;52.538;6.108;2023-10-13T02:39:34;100850.22;;;15.96;100.00
73651;BME280;61944;52.538;6.108;2023-10-13T02:42:01;100847.41;;;15.96;100.00
73651;BME280;61944;52.538;6.108;2023-10-13T02:44:26;100846.59;;;15.96;100.00
73651;BME280;61944;52.538;6.108;2023-10-13T02:46:55;100834.47;;;15.99;100.00
73651;BME280;61944;52.538;6.108;2023-10-13T02:49:25;100831.28;;;15.93;100.00
73651;BME280;61944;52.538;6.108;2023-10-13T02:51:52;100843.72;;;15.99;100.00
73651;BME280;61944;52.538;6.108;2023-10-13T02:54:18;100836.91;;;15.97;100.00
73651;BME280;61944;52.538;6.108;2023-10-13T02:56:44;100835.66;;;16.01;100.00
73651;BME280;61944;52.538;6.108;2023-10-13T02:59:28;100825.53;;;16.04;100.00
73651;BME280;61944;52.538;6.108;2023-10-13T03:02:04;100819.94;;;16.00;100.00
73651;BME280;61944;52.538;6.108;2023-10-13T03:04:44;100814.72;;;15.99;100.00
73651;BME280;61944;52.538;6.108;2023-10-13T03:07:10;100816.75;;;15.98;100.00
73651;BME280;61944;52.538;6.108;2023-10-13T03:09:35;100820.72;;;16.04;100.00
73651;BME280;61944;52.538;6.108;2023-10-13T03:12:03;100814.31;;;16.00;100.00
73651;BME280;61944;52.538;6.108;2023-10-13T03:14:29;100816.66;;;16.05;100.00
73651;BME280;61944;52.538;6.108;2023-10-13T03:17:02;100809.06;;;15.99;100.00
73651;BME280;61944;52.538;6.108;2023-10-13T03:19:30;100801.84;;;15.94;100.00
73651;BME280;61944;52.538;6.108;2023-10-13T03:22:03;100796.59;;;15.96;100.00
73651;BME280;61944;52.538;6.108;2023-10-13T03:24:35;100796.09;;;16.05;100.00
73651;BME280;61944;52.538;6.108;2023-10-13T03:27:02;100781.63;;;15.99;100.00
73651;BME280;61944;52.538;6.108;2023-10-13T03:29:53;100782.44;;;16.00;100.00
73651;BME280;61944;52.538;6.108;2023-10-13T05:08:12;100541.59;;;15.76;100.00
73651;BME280;61944;52.538;6.108;2023-10-13T05:11:04;100532.72;;;15.74;100.00
73651;BME280;61944;52.538;6.108;2023-10-13T05:13:48;100529.03;;;15.80;100.00
73651;BME280;61944;52.538;6.108;2023-10-13T05:16:32;100516.16;;;15.79;100.00
73651;BME280;61944;52.538;6.108;2023-10-13T05:19:16;100522.59;;;15.80;100.00
73651;BME280;61944;52.538;6.108;2023-10-13T05:22:00;100519.38;;;15.78;100.00
73651;BME280;61944;52.538;6.108;2023-10-13T05:24:44;100500.03;;;15.76;100.00
73651;BME280;61944;52.538;6.108;2023-10-13T05:27:28;100502.44;;;15.78;100.00
73651;BME280;61944;52.538;6.108;2023-10-13T05:30:12;100512.50;;;15.79;100.00
73651;BME280;61944;52.538;6.108;2023-10-13T05:32:56;100484.66;;;15.81;100.00
73651;BME280;61944;52.538;6.108;2023-10-13T05:35:40;100493.56;;;15.79;100.00
73651;BME280;61944;52.538;6.108;2023-10-13T05:38:24;100486.31;;;15.78;100.00
73651;BME280;61944;52.538;6.108;2023-10-13T05:41:08;100481.16;;;15.73;100.00
73651;BME280;61944;52.538;6.108;2023-10-13T05:43:52;100473.44;;;15.77;100.00
73651;BME280;61944;52.538;6.108;2023-10-13T05:46:36;100471.41;;;15.78;100.00
73651;BME280;61944;52.538;6.108;2023-10-13T05:49:06;100470.06;;;15.90;100.00
73651;BME280;61944;52.538;6.108;2023-10-13T05:51:41;100466.91;;;15.84;100.00
73651;BME280;61944;52.538;6.108;2023-10-13T05:54:10;100475.00;;;15.82;100.00
73651;BME280;61944;52.538;6.108;2023-10-13T05:56:42;100474.59;;;15.80;100.00
73651;BME280;61944;52.538;6.108;2023-10-13T05:59:27;100475.03;;;15.78;100.00
73651;BME280;61944;52.538;6.108;2023-10-13T06:02:14;100475.81;;;15.79;100.00
73651;BME280;61944;52.538;6.108;2023-10-13T06:05:01;100474.22;;;15.78;100.00
73651;BME280;61944;52.538;6.108;2023-10-13T06:07:45;100486.28;;;15.82;100.00
73651;BME280;61944;52.538;6.108;2023-10-13T06:10:29;100486.09;;;15.96;100.00
73651;BME280;61944;52.538;6.108;2023-10-13T06:13:13;100487.66;;;15.97;100.00
73651;BME280;61944;52.538;6.108;2023-10-13T06:15:57;100489.66;;;16.00;100.00
73651;BME280;61944;52.538;6.108;2023-10-13T06:18:41;100479.78;;;16.12;100.00
73651;BME280;61944;52.538;6.108;2023-10-13T06:21:25;100491.41;;;16.18;100.00
73651;BME280;61944;52.538;6.108;2023-10-13T06:24:09;100493.91;;;16.12;100.00
73651;BME280;61944;52.538;6.108;2023-10-13T06:26:53;100500.47;;;16.05;100.00
73651;BME280;61944;52.538;6.108;2023-10-13T06:29:40;100488.53;;;16.21;100.00
73651;BME280;61944;52.538;6.108;2023-10-13T06:32:06;100497.91;;;16.15;100.00
73651;BME280;61944;52.538;6.108;2023-10-13T06:34:38;100489.81;;;16.17;100.00
73651;BME280;61944;52.538;6.108;2023-10-13T06:37:07;100490.47;;;16.28;100.00
73651;BME280;61944;52.538;6.108;2023-10-13T06:39:55;100469.19;;;16.20;100.00
73651;BME280;61944;52.538;6.108;2023-10-13T06:42:24;100462.75;;;16.19;100.00
73651;BME280;61944;52.538;6.108;2023-10-13T06:44:56;100472.03;;;16.20;100.00
73651;BME280;61944;52.538;6.108;2023-10-13T06:47:24;100460.22;;;16.25;100.00
73651;BME280;61944;52.538;6.108;2023-10-13T06:49:50;100459.88;;;16.23;100.00
73651;BME280;61944;52.538;6.108;2023-10-13T06:52:22;100462.22;;;16.28;100.00
73651;BME280;61944;52.538;6.108;2023-10-13T06:54:50;100463.81;;;16.29;100.00
73651;BME280;61944;52.538;6.108;2023-10-13T06:57:16;100458.09;;;16.33;100.00
73651;BME280;61944;52.538;6.108;2023-10-13T06:59:48;100454.97;;;16.27;100.00
73651;BME280;61944;52.538;6.108;2023-10-13T07:02:14;100460.69;;;16.23;100.00
73651;BME280;61944;52.538;6.108;2023-10-13T07:04:49;100467.88;;;16.28;100.00
73651;BME280;61944;52.538;6.108;2023-10-13T07:07:22;100467.75;;;16.35;100.00
73651;BME280;61944;52.538;6.108;2023-10-13T07:09:49;100462.97;;;16.32;100.00
73651;BME280;61944;52.538;6.108;2023-10-13T07:12:20;100467.88;;;16.28;100.00
73651;BME280;61944;52.538;6.108;2023-10-13T07:14:51;100457.41;;;16.25;100.00
73651;BME280;61944;52.538;6.108;2023-10-13T07:17:18;100462.22;;;16.28;100.00
73651;BME280;61944;52.538;6.108;2023-10-13T07:19:52;100451.00;;;16.21;100.00
73651;BME280;61944;52.538;6.108;2023-10-13T07:22:24;100447.03;;;16.18;100.00
73651;BME280;61944;52.538;6.108;2023-10-13T07:24:53;100446.06;;;16.29;100.00
73651;BME280;61944;52.538;6.108;2023-10-13T07:27:22;100433.66;;;16.22;100.00
73651;BME280;61944;52.538;6.108;2023-10-13T07:29:57;100430.41;;;16.24;100.00
73651;BME280;61944;52.538;6.108;2023-10-13T07:32:42;100435.69;;;16.22;100.00
73651;BME280;61944;52.538;6.108;2023-10-13T07:35:15;100430.78;;;16.26;100.00
73651;BME280;61944;52.538;6.108;2023-10-13T07:37:43;100435.25;;;16.23;100.00
73651;BME280;61944;52.538;6.108;2023-10-13T07:40:09;100436.09;;;16.20;100.00
73651;BME280;61944;52.538;6.108;2023-10-13T07:42:56;100424.03;;;16.20;100.00
73651;BME280;61944;52.538;6.108;2023-10-13T07:45:36;100417.50;;;16.23;100.00
73651;BME280;61944;52.538;6.108;2023-10-13T07:48:07;100415.00;;;16.29;100.00
73651;BME280;61944;52.538;6.108;2023-10-13T07:50:41;100415.06;;;16.25;100.00
73651;BME280;61944;52.538;6.108;2023-10-13T07:53:06;100403.28;;;16.30;100.00
73651;BME280;61944;52.538;6.108;2023-10-13T07:55:48;100398.84;;;16.29;100.00
73651;BME280;61944;52.538;6.108;2023-10-13T07:58:20;100399.13;;;16.38;100.00
73651;BME280;61944;52.538;6.108;2023-10-13T08:00:45;100393.94;;;16.33;100.00
73651;BME280;61944;52.538;6.108;2023-10-13T08:03:12;100384.91;;;16.42;100.00
73651;BME280;61944;52.538;6.108;2023-10-13T08:05:41;100383.75;;;16.39;100.00
73651;BME280;61944;52.538;6.108;2023-10-13T08:08:36;100376.53;;;16.38;100.00
73651;BME280;61944;52.538;6.108;2023-10-13T08:11:12;100373.03;;;16.51;100.00
73651;BME280;61944;52.538;6.108;2023-10-13T08:13:54;100358.06;;;16.54;100.00
73651;BME280;61944;52.538;6.108;2023-10-13T08:16:20;100359.66;;;16.55;100.00
73651;BME280;61944;52.538;6.108;2023-10-13T08:18:50;100362.72;;;16.64;100.00
73651;BME280;61944;52.538;6.108;2023-10-13T08:21:19;100360.19;;;16.70;100.00
73651;BME280;61944;52.538;6.108;2023-10-13T08:23:51;100360.84;;;16.77;100.00
73651;BME280;61944;52.538;6.108;2023-10-13T08:26:23;100355.63;;;16.76;100.00
73651;BME280;61944;52.538;6.108;2023-10-13T08:29:01;100347.47;;;16.81;100.00
73651;BME280;61944;52.538;6.108;2023-10-13T08:34:30;100333.56;;;16.91;100.00
73651;BME280;61944;52.538;6.108;2023-10-13T08:37:04;100334.66;;;16.97;100.00
73651;BME280;61944;52.538;6.108;2023-10-13T08:39:48;100334.66;;;16.97;100.00
73651;BME280;61944;52.538;6.108;2023-10-13T08:42:30;100338.19;;;17.01;100.00
73651;BME280;61944;52.538;6.108;2023-10-13T08:45:16;100328.69;;;17.11;100.00
73651;BME280;61944;52.538;6.108;2023-10-13T08:47:52;100325.94;;;17.07;100.00
73651;BME280;61944;52.538;6.108;2023-10-13T08:50:47;100325.81;;;17.15;100.00
73651;BME280;61944;52.538;6.108;2023-10-13T08:56:00;100316.00;;;17.19;100.00
73651;BME280;61944;52.538;6.108;2023-10-13T08:58:41;100312.56;;;17.28;100.00
73651;BME280;61944;52.538;6.108;2023-10-13T09:04:10;100309.31;;;17.30;100.00
73651;BME280;61944;52.538;6.108;2023-10-13T09:07:02;100315.44;;;17.44;100.00
73651;BME280;61944;52.538;6.108;2023-10-13T09:09:31;100312.44;;;17.52;100.00
73651;BME280;61944;52.538;6.108;2023-10-13T09:12:01;100307.56;;;17.36;100.00
73651;BME280;61944;52.538;6.108;2023-10-13T09:14:38;100304.19;;;17.41;100.00
73651;BME280;61944;52.538;6.108;2023-10-13T09:17:07;100300.16;;;17.42;100.00
73651;BME280;61944;52.538;6.108;2023-10-13T09:19:53;100279.19;;;17.39;100.00
73651;BME280;61944;52.538;6.108;2023-10-13T09:22:29;100284.59;;;17.50;100.00
73651;BME280;61944;52.538;6.108;2023-10-13T09:25:04;100277.69;;;17.51;100.00
73651;BME280;61944;52.538;6.108;2023-10-13T09:27:39;100278.25;;;17.46;100.00
73651;BME280;61944;52.538;6.108;2023-10-13T09:30:05;100276.13;;;17.50;100.00
73651;BME280;61944;52.538;6.108;2023-10-13T09:32:47;100283.72;;;17.53;100.00
73651;BME280;61944;52.538;6.108;2023-10-13T09:35:18;100277.69;;;17.51;100.00
73651;BME280;61944;52.538;6.108;2023-10-13T09:37:45;100270.81;;;17.52;100.00
73651;BME280;61944;52.538;6.108;2023-10-13T09:40:17;100265.66;;;17.47;100.00
73651;BME280;61944;52.538;6.108;2023-10-13T09:42:58;100259.41;;;17.56;100.00
73651;BME280;61944;52.538;6.108;2023-10-13T09:45:29;100252.59;;;17.53;100.00
73651;BME280;61944;52.538;6.108;2023-10-13T09:48:02;100274.16;;;17.63;100.00
73651;BME280;61944;52.538;6.108;2023-10-13T09:50:43;100262.31;;;17.52;100.00
73651;BME280;61944;52.538;6.108;2023-10-13T09:53:10;100245.34;;;17.52;100.00
73651;BME280;61944;52.538;6.108;2023-10-13T09:55:43;100243.75;;;17.67;100.00
73651;BME280;61944;52.538;6.108;2023-10-13T09:58:12;100243.03;;;17.63;100.00
73651;BME280;61944;52.538;6.108;2023-10-13T10:00:50;100233.13;;;17.72;100.00
73651;BME280;61944;52.538;6.108;2023-10-13T10:03:45;100235.53;;;17.73;100.00
73651;BME280;61944;52.538;6.108;2023-10-13T10:06:22;100245.34;;;17.68;100.00
73651;BME280;61944;52.538;6.108;2023-10-13T10:09:04;100228.34;;;17.68;100.00
73651;BME280;61944;52.538;6.108;2023-10-13T10:12:13;100233.84;;;17.76;100.00
73651;BME280;61944;52.538;6.108;2023-10-13T10:14:56;100225.81;;;17.91;100.00
73651;BME280;61944;52.538;6.108;2023-10-13T10:17:26;100214.84;;;17.93;100.00
73651;BME280;61944;52.538;6.108;2023-10-13T10:19:55;100206.78;;;17.91;100.00
73651;BME280;61944;52.538;6.108;2023-10-13T10:22:29;100217.22;;;17.94;100.00
73651;BME280;61944;52.538;6.108;2023-10-13T10:25:09;100199.19;;;17.88;100.00
73651;BME280;61944;52.538;6.108;2023-10-13T10:27:56;100192.28;;;17.89;100.00
73651;BME280;61944;52.538;6.108;2023-10-13T10:30:29;100184.22;;;17.87;100.00
73651;BME280;61944;52.538;6.108;2023-10-13T10:32:58;100184.13;;;17.91;100.00
73651;BME280;61944;52.538;6.108;2023-10-13T10:35:31;100182.56;;;17.90;100.00
73651;BME280;61944;52.538;6.108;2023-10-13T10:40:56;100171.16;;;18.06;100.00
73651;BME280;61944;52.538;6.108;2023-10-13T10:43:30;100169.03;;;18.11;100.00
73651;BME280;61944;52.538;6.108;2023-10-13T10:46:15;100166.41;;;18.03;100.00
73651;BME280;61944;52.538;6.108;2023-10-13T10:48:45;100173.13;;;18.10;100.00
73651;BME280;61944;52.538;6.108;2023-10-13T10:51:14;100152.41;;;18.25;100.00
73651;BME280;61944;52.538;6.108;2023-10-13T10:53:50;100149.38;;;18.20;100.00
73651;BME280;61944;52.538;6.108;2023-10-13T10:56:18;100142.59;;;18.30;100.00
73651;BME280;61944;52.538;6.108;2023-10-13T10:58:55;100135.44;;;18.25;100.00
73651;BME280;61944;52.538;6.108;2023-10-13T11:01:22;100135.13;;;18.36;100.00
73651;BME280;61944;52.538;6.108;2023-10-13T11:06:49;100129.31;;;18.27;100.00
73651;BME280;61944;52.538;6.108;2023-10-13T11:09:27;100121.63;;;18.40;100.00
73651;BME280;61944;52.538;6.108;2023-10-13T11:12:09;100129.84;;;18.51;100.00
73651;BME280;61944;52.538;6.108;2023-10-13T11:14:45;100117.00;;;18.46;100.00
73651;BME280;61944;52.538;6.108;2023-10-13T11:17:23;100119.63;;;18.54;100.00
73651;BME280;61944;52.538;6.108;2023-10-13T11:20:08;100109.44;;;18.69;100.00
73651;BME280;61944;52.538;6.108;2023-10-13T11:22:41;100095.69;;;18.67;100.00
73651;BME280;61944;52.538;6.108;2023-10-13T11:25:40;100083.03;;;18.72;100.00
73651;BME280;61944;52.538;6.108;2023-10-13T11:28:13;100082.00;;;18.66;100.00
73651;BME280;61944;52.538;6.108;2023-10-13T11:31:07;100070.31;;;18.64;100.00
73651;BME280;61944;52.538;6.108;2023-10-13T11:33:44;100067.84;;;18.92;100.00
73651;BME280;61944;52.538;6.108;2023-10-13T11:36:11;100047.66;;;18.64;100.00
73651;BME280;61944;52.538;6.108;2023-10-13T11:38:47;100060.03;;;18.83;100.00
73651;BME280;61944;52.538;6.108;2023-10-13T11:41:13;100039.03;;;18.80;100.00
73651;BME280;61944;52.538;6.108;2023-10-13T11:43:48;100059.00;;;18.89;100.00
73651;BME280;61944;52.538;6.108;2023-10-13T11:46:24;100062.38;;;18.84;100.00
73651;BME280;61944;52.538;6.108;2023-10-13T11:49:07;100039.84;;;18.81;100.00
73651;BME280;61944;52.538;6.108;2023-10-13T11:51:42;100038.31;;;18.76;100.00
73651;BME280;61944;52.538;6.108;2023-10-13T11:56:41;100021.91;;;18.84;100.00
73651;BME280;61944;52.538;6.108;2023-10-13T11:59:06;100023.25;;;18.92;100.00
73651;BME280;61944;52.538;6.108;2023-10-13T12:01:41;100025.66;;;18.94;100.00
73651;BME280;61944;52.538;6.108;2023-10-13T12:04:25;100009.41;;;18.94;100.00
73651;BME280;61944;52.538;6.108;2023-10-13T12:07:06;100013.81;;;19.08;100.00
73651;BME280;61944;52.538;6.108;2023-10-13T12:09:53;99991.00;;;19.12;100.00
73651;BME280;61944;52.538;6.108;2023-10-13T12:12:26;99981.53;;;19.27;100.00
73651;BME280;61944;52.538;6.108;2023-10-13T12:14:52;99994.72;;;19.21;100.00
73651;BME280;61944;52.538;6.108;2023-10-13T12:17:20;99993.59;;;19.19;100.00
73651;BME280;61944;52.538;6.108;2023-10-13T12:19:56;99979.53;;;19.15;100.00
73651;BME280;61944;52.538;6.108;2023-10-13T12:22:22;99995.94;;;19.20;100.00
73651;BME280;61944;52.538;6.108;2023-10-13T12:24:56;100009.75;;;19.31;100.00
73651;BME280;61944;52.538;6.108;2023-10-13T12:27:21;99986.94;;;19.35;100.00
73651;BME280;61944;52.538;6.108;2023-10-13T12:30:08;100005.63;;;19.45;100.00
73651;BME280;61944;52.538;6.108;2023-10-13T12:32:38;99996.50;;;19.50;100.00
73651;BME280;61944;52.538;6.108;2023-10-13T12:35:09;100000.56;;;19.40;100.00
73651;BME280;61944;52.538;6.108;2023-10-13T12:37:35;100012.13;;;19.33;100.00
73651;BME280;61944;52.538;6.108;2023-10-13T12:40:28;100002.38;;;19.34;100.00
73651;BME280;61944;52.538;6.108;2023-10-13T12:43:11;100010.56;;;19.54;100.00
73651;BME280;61944;52.538;6.108;2023-10-13T12:45:55;100017.97;;;19.51;100.00
73651;BME280;61944;52.538;6.108;2023-10-13T12:48:39;99998.03;;;19.42;100.00
73651;BME280;61944;52.538;6.108;2023-10-13T12:51:23;99985.63;;;19.48;100.00
73651;BME280;61944;52.538;6.108;2023-10-13T12:53:55;99990.31;;;19.42;100.00
73651;BME280;61944;52.538;6.108;2023-10-13T12:56:29;99981.41;;;19.53;100.00
73651;BME280;61944;52.538;6.108;2023-10-13T12:58:55;99983.91;;;19.51;100.00
73651;BME280;61944;52.538;6.108;2023-10-13T13:01:21;99988.53;;;19.36;100.00
73651;BME280;61944;52.538;6.108;2023-10-13T13:03:47;99996.78;;;19.43;100.00
73651;BME280;61944;52.538;6.108;2023-10-13T13:06:20;99992.81;;;19.62;100.00
73651;BME280;61944;52.538;6.108;2023-10-13T13:08:57;100014.53;;;19.34;100.00
73651;BME280;61944;52.538;6.108;2023-10-13T13:11:23;100000.66;;;19.36;100.00
73651;BME280;61944;52.538;6.108;2023-10-13T13:13:49;100009.84;;;19.40;100.00
73651;BME280;61944;52.538;6.108;2023-10-13T13:16:16;100004.06;;;19.44;100.00
73651;BME280;61944;52.538;6.108;2023-10-13T13:18:52;99999.34;;;19.50;100.00
73651;BME280;61944;52.538;6.108;2023-10-13T13:21:20;99988.59;;;19.45;100.00
73651;BME280;61944;52.538;6.108;2023-10-13T13:23:51;100002.06;;;19.54;100.00
73651;BME280;61944;52.538;6.108;2023-10-13T13:26:17;100024.88;;;19.50;100.00
73651;BME280;61944;52.538;6.108;2023-10-13T13:28:46;100009.63;;;19.35;100.00
73651;BME280;61944;52.538;6.108;2023-10-13T13:31:16;100001.16;;;19.22;100.00
73651;BME280;61944;52.538;6.108;2023-10-13T13:33:42;100026.63;;;19.13;100.00
73651;BME280;61944;52.538;6.108;2023-10-13T13:36:09;100009.97;;;19.02;100.00
73651;BME280;61944;52.538;6.108;2023-10-13T13:38:40;100031.09;;;18.88;100.00
73651;BME280;61944;52.538;6.108;2023-10-13T13:41:11;100027.47;;;18.87;100.00
73651;BME280;61944;52.538;6.108;2023-10-13T13:43:40;100022.91;;;18.77;100.00
73651;BME280;61944;52.538;6.108;2023-10-13T13:46:21;100006.84;;;18.74;100.00
73651;BME280;61944;52.538;6.108;2023-10-13T13:48:50;99996.38;;;18.71;100.00
73651;BME280;61944;52.538;6.108;2023-10-13T13:51:17;99983.69;;;18.63;100.00
73651;BME280;61944;52.538;6.108;2023-10-13T13:53:52;99990.84;;;18.55;100.00
73651;BME280;61944;52.538;6.108;2023-10-13T13:56:18;100001.72;;;18.56;100.00
73651;BME280;61944;52.538;6.108;2023-10-13T13:58:48;100018.84;;;18.53;100.00
73651;BME280;61944;52.538;6.108;2023-10-13T14:01:17;100011.59;;;18.52;100.00
73651;BME280;61944;52.538;6.108;2023-10-13T14:03:45;100019.31;;;18.51;100.00
73651;BME280;61944;52.538;6.108;2023-10-13T14:06:18;100007.75;;;18.45;100.00
73651;BME280;61944;52.538;6.108;2023-10-13T14:08:49;99997.31;;;18.42;100.00
73651;BME280;61944;52.538;6.108;2023-10-13T14:11:17;99990.06;;;18.41;100.00
73651;BME280;61944;52.538;6.108;2023-10-13T14:14:13;99982.81;;;18.40;100.00
73651;BME280;61944;52.538;6.108;2023-10-13T14:16:46;99984.16;;;18.36;100.00
73651;BME280;61944;52.538;6.108;2023-10-13T14:19:16;99991.88;;;18.35;100.00
73651;BME280;61944;52.538;6.108;2023-10-13T14:21:57;99995.97;;;18.34;100.00
73651;BME280;61944;52.538;6.108;2023-10-13T14:24:24;99990.97;;;18.38;100.00
73651;BME280;61944;52.538;6.108;2023-10-13T14:26:54;99977.13;;;18.40;100.00
73651;BME280;61944;52.538;6.108;2023-10-13T14:29:19;99989.47;;;18.46;100.00
73651;BME280;61944;52.538;6.108;2023-10-13T14:31:45;99989.47;;;18.46;100.00
73651;BME280;61944;52.538;6.108;2023-10-13T14:34:14;99986.09;;;18.39;100.00
73651;BME280;61944;52.538;6.108;2023-10-13T14:36:40;99993.25;;;18.31;100.00
73651;BME280;61944;52.538;6.108;2023-10-13T14:39:06;100001.84;;;18.27;100.00
73651;BME280;61944;52.538;6.108;2023-10-13T14:41:35;100005.34;;;18.18;100.00
73651;BME280;61944;52.538;6.108;2023-10-13T14:44:00;100033.09;;;18.11;100.00
73651;BME280;61944;52.538;6.108;2023-10-13T14:46:30;100038.63;;;18.01;100.00
73651;BME280;61944;52.538;6.108;2023-10-13T14:48:55;100030.72;;;17.96;100.00
73651;BME280;61944;52.538;6.108;2023-10-13T14:51:21;100018.34;;;17.90;100.00
73651;BME280;61944;52.538;6.108;2023-10-13T14:53:46;100015.72;;;17.83;100.00
73651;BME280;61944;52.538;6.108;2023-10-13T14:56:14;100022.25;;;17.80;100.00
73651;BME280;61944;52.538;6.108;2023-10-13T14:58:40;100040.59;;;17.75;100.00
73651;BME280;61944;52.538;6.108;2023-10-13T15:01:16;100055.63;;;17.72;100.00
73651;BME280;61944;52.538;6.108;2023-10-13T15:03:48;100061.38;;;17.68;100.00
73651;BME280;61944;52.538;6.108;2023-10-13T15:06:22;100048.81;;;17.70;100.00